createdAt,value
2023-04-15T00:00:24.415Z,13.25
2023-04-15T00:04:27.132Z,13.24
2023-04-15T00:08:35.744Z,13.23
2023-04-15T00:12:39.966Z,13.25
2023-04-15T00:16:46.393Z,13.31
2023-04-15T00:20:47.701Z,13.46
2023-04-15T00:24:50.987Z,13.57
2023-04-15T00:28:55.546Z,13.78
2023-04-15T00:32:59.707Z,14.20
2023-04-15T00:37:01.430Z,14.43
2023-04-15T00:41:04.123Z,14.55
2023-04-15T00:45:05.465Z,14.42
2023-04-15T00:49:09.178Z,14.20
2023-04-15T00:53:16.399Z,14.41
2023-04-15T00:57:20.216Z,14.39
2023-04-15T01:01:24.970Z,14.10
2023-04-15T01:05:30.090Z,13.84
2023-04-15T01:09:31.550Z,14.11
2023-04-15T01:13:32.499Z,13.88
2023-04-15T01:17:33.707Z,13.84
2023-04-15T01:21:36.138Z,13.92
2023-04-15T01:25:43.433Z,13.85
2023-04-15T01:29:44.594Z,13.95
2023-04-15T01:33:55.166Z,14.10
2023-04-15T01:37:57.349Z,14.28
2023-04-15T01:42:03.512Z,13.97
2023-04-15T01:46:11.859Z,13.77
2023-04-15T01:50:14.834Z,13.75
2023-04-15T01:54:15.496Z,13.67
2023-04-15T01:58:28.006Z,13.65
2023-04-15T02:02:31.304Z,13.90
2023-04-15T02:06:32.763Z,14.01
2023-04-15T02:10:38.175Z,13.85
2023-04-15T02:14:45.821Z,13.50
2023-04-15T02:18:49.741Z,13.67
2023-04-15T02:22:53.414Z,13.94
2023-04-15T02:26:54.719Z,14.06
2023-04-15T02:31:04.983Z,14.06
2023-04-15T02:35:08.837Z,13.93
2023-04-15T02:39:10.632Z,13.82
2023-04-15T02:43:11.721Z,13.38
2023-04-15T02:47:15.127Z,12.90
2023-04-15T02:51:17.912Z,12.81
2023-04-15T02:55:19.374Z,12.73
2023-04-15T02:59:22.906Z,12.99
2023-04-15T03:03:29.625Z,13.22
2023-04-15T03:07:31.662Z,13.39
2023-04-15T03:11:33.643Z,13.19
2023-04-15T03:15:35.725Z,12.73
2023-04-15T03:19:51.956Z,12.59
2023-04-15T03:23:53.199Z,12.32
2023-04-15T03:27:53.561Z,12.10
2023-04-15T03:32:02.238Z,12.09
2023-04-15T03:36:06.718Z,12.17
2023-04-15T03:40:14.871Z,12.20
2023-04-15T03:44:23.086Z,11.96
2023-04-15T03:48:24.592Z,11.80
2023-04-15T03:52:27.768Z,11.84
2023-04-15T03:56:31.581Z,12.14
2023-04-15T04:00:42.864Z,12.29
2023-04-15T04:04:47.401Z,12.42
2023-04-15T04:08:58.914Z,12.46
2023-04-15T04:13:10.567Z,12.95
2023-04-15T04:17:12.627Z,13.27
2023-04-15T04:21:14.340Z,13.60
2023-04-15T04:25:21.535Z,13.71
2023-04-15T04:29:32.993Z,14.19
2023-04-15T04:33:36.908Z,14.05
2023-04-15T04:42:40.190Z,13.48
2023-04-15T04:46:56.188Z,12.90
2023-04-15T04:51:01.174Z,13.48
2023-04-15T04:55:03.192Z,13.88
2023-04-15T04:59:09.818Z,13.99
2023-04-15T05:03:13.401Z,13.84
2023-04-15T05:07:17.307Z,13.99
2023-04-15T05:11:42.174Z,13.85
2023-04-15T05:15:50.865Z,14.23
2023-04-15T05:19:58.368Z,14.78
2023-04-15T05:24:10.262Z,14.74
2023-04-15T05:28:13.256Z,14.71
2023-04-15T05:32:19.998Z,14.53
2023-04-15T05:36:27.232Z,14.62
2023-04-15T05:40:38.829Z,14.88
2023-04-15T05:44:49.607Z,15.01
2023-04-15T05:48:54.657Z,14.76
2023-04-15T05:53:04.825Z,14.68
2023-04-15T05:57:06.286Z,14.67
2023-04-15T06:01:10.310Z,14.92
2023-04-15T06:05:13.499Z,15.33
2023-04-15T06:09:40.382Z,15.70
2023-04-15T06:14:44.891Z,15.98
2023-04-15T06:23:56.789Z,16.83
2023-04-15T06:28:26.900Z,16.83
2023-04-15T06:32:32.906Z,16.65
2023-04-15T06:36:34.497Z,17.02
2023-04-15T06:40:37.235Z,17.63
2023-04-15T06:44:47.539Z,17.77
2023-04-15T06:48:49.231Z,17.32
2023-04-15T06:52:56.009Z,16.48
2023-04-15T06:56:57.372Z,16.83
2023-04-15T07:01:00.407Z,16.74
2023-04-15T07:05:01.108Z,17.03
2023-04-15T07:09:02.108Z,17.49
2023-04-15T07:13:07.277Z,17.61
2023-04-15T07:17:12.983Z,17.22
2023-04-15T07:21:13.302Z,17.40
2023-04-15T07:25:14.014Z,17.27
2023-04-15T07:29:14.882Z,17.67
2023-04-15T07:33:17.791Z,17.88
2023-04-15T07:37:21.090Z,16.71
2023-04-15T07:41:26.853Z,16.33
2023-04-15T07:45:27.804Z,16.82
2023-04-15T07:49:32.441Z,16.98
2023-04-15T07:53:33.904Z,17.63
2023-04-15T07:57:35.257Z,17.30
2023-04-15T08:01:48.344Z,17.26
2023-04-15T08:05:56.830Z,17.42
2023-04-15T08:10:01.928Z,17.74
2023-04-15T08:14:03.296Z,17.43
2023-04-15T08:18:03.960Z,17.31
2023-04-15T08:22:15.621Z,17.90
2023-04-15T08:26:25.417Z,18.00
2023-04-15T08:30:28.721Z,17.88
2023-04-15T08:34:36.424Z,17.88
2023-04-15T08:38:43.440Z,17.66
2023-04-15T08:42:57.388Z,17.18
2023-04-15T08:46:59.337Z,17.37
2023-04-15T08:51:03.783Z,17.12
2023-04-15T08:55:10.771Z,17.66
2023-04-15T08:59:11.971Z,17.60
2023-04-15T09:03:12.185Z,17.59
2023-04-15T09:07:13.106Z,18.25
2023-04-15T09:11:15.681Z,17.70
2023-04-15T09:15:31.493Z,17.78
2023-04-15T09:20:21.910Z,18.20
2023-04-15T09:24:26.637Z,17.97
2023-04-15T09:28:49.296Z,18.41
2023-04-15T09:32:59.402Z,18.21
2023-04-15T09:37:11.778Z,18.22
2023-04-15T09:41:21.125Z,18.83
2023-04-15T09:45:30.572Z,18.90
2023-04-15T09:49:43.775Z,19.02
2023-04-15T09:54:00.214Z,19.33
2023-04-15T10:02:50.769Z,18.76
2023-04-15T10:06:54.908Z,19.38
2023-04-15T10:10:56.454Z,20.01
2023-04-15T10:15:09.578Z,20.27
2023-04-15T10:19:31.638Z,19.69
2023-04-15T10:33:06.631Z,20.47
2023-04-15T10:37:29.615Z,20.15
2023-04-15T10:42:10.907Z,19.84
2023-04-15T10:46:29.380Z,20.03
2023-04-15T10:50:30.106Z,20.13
2023-04-15T10:54:49.684Z,20.43
2023-04-15T10:59:13.573Z,20.35
2023-04-15T11:03:43.160Z,20.46
2023-04-15T11:07:47.203Z,20.98
2023-04-15T11:12:16.432Z,20.80
2023-04-15T11:16:18.871Z,21.15
2023-04-15T11:20:25.991Z,21.08
2023-04-15T11:24:32.472Z,21.22
2023-04-15T11:28:34.804Z,21.29
2023-04-15T11:32:47.569Z,20.83
2023-04-15T11:37:12.331Z,21.31
2023-04-15T11:41:17.489Z,21.07
2023-04-15T11:45:34.962Z,21.37
2023-04-15T11:49:58.469Z,21.60
2023-04-15T11:54:09.246Z,21.49
2023-04-15T11:58:30.977Z,21.67
2023-04-15T12:02:48.706Z,21.92
2023-04-15T12:06:51.158Z,21.81
2023-04-15T12:10:50.878Z,21.88
2023-04-15T12:15:00.463Z,22.22
2023-04-15T12:19:30.820Z,22.31
2023-04-15T12:28:20.849Z,22.16
2023-04-15T12:37:52.548Z,21.99
2023-04-15T12:42:20.240Z,22.62
2023-04-15T12:46:27.846Z,22.14
2023-04-15T12:50:31.385Z,22.66
2023-04-15T12:54:44.710Z,22.15
2023-04-15T12:59:02.014Z,22.34
2023-04-15T13:03:11.610Z,22.30
2023-04-15T13:07:43.158Z,22.49
2023-04-15T13:11:52.683Z,22.81
2023-04-15T13:20:19.771Z,22.73
2023-04-15T13:24:40.152Z,22.72
2023-04-15T13:28:50.036Z,22.98
2023-04-15T13:33:21.618Z,23.26
2023-04-15T13:37:46.721Z,23.16
2023-04-15T13:42:15.520Z,22.86
2023-04-15T13:46:27.896Z,23.07
2023-04-15T13:50:49.852Z,23.33
2023-04-15T13:55:22.389Z,23.70
2023-04-15T14:00:03.352Z,23.35
2023-04-15T14:04:26.379Z,23.07
2023-04-15T14:08:48.861Z,22.98
2023-04-15T14:13:18.496Z,22.85
2023-04-15T14:17:51.524Z,23.03
2023-04-15T14:22:07.882Z,22.94
2023-04-15T14:26:47.140Z,22.94
2023-04-15T14:31:14.012Z,23.15
2023-04-15T14:36:03.343Z,22.91
2023-04-15T14:40:52.930Z,22.75
2023-04-15T14:45:20.105Z,22.48
2023-04-15T14:49:33.793Z,22.24
2023-04-15T14:53:46.724Z,22.13
2023-04-15T14:57:58.280Z,22.01
2023-04-15T15:02:04.587Z,21.91
2023-04-15T15:06:32.134Z,21.79
2023-04-15T15:10:58.208Z,21.62
2023-04-15T15:20:10.250Z,21.71
2023-04-15T15:24:37.419Z,21.87
2023-04-15T15:28:43.460Z,21.56
2023-04-15T15:32:54.595Z,21.56
2023-04-15T15:37:02.780Z,21.49
2023-04-15T15:41:12.316Z,21.18
2023-04-15T15:45:27.726Z,21.07
2023-04-15T15:49:31.785Z,21.12
2023-04-15T15:53:32.506Z,21.33
2023-04-15T15:57:34.627Z,21.44
2023-04-15T16:01:39.373Z,21.39
2023-04-15T16:05:44.266Z,21.21
2023-04-15T16:09:49.802Z,21.22
2023-04-15T16:14:10.566Z,21.27
2023-04-15T16:18:34.582Z,20.97
2023-04-15T16:22:45.042Z,20.94
2023-04-15T16:27:02.990Z,21.24
2023-04-15T16:31:08.438Z,20.99
2023-04-15T16:35:27.649Z,20.92
2023-04-15T16:39:46.839Z,20.69
2023-04-15T16:43:53.389Z,20.58
2023-04-15T16:47:56.754Z,20.29
2023-04-15T16:51:59.794Z,20.10
2023-04-15T16:56:00.045Z,19.98
2023-04-15T17:00:00.448Z,19.84
2023-04-15T17:04:05.394Z,19.69
2023-04-15T17:08:06.328Z,19.61
2023-04-15T17:12:06.786Z,19.77
2023-04-15T17:16:06.533Z,19.83
2023-04-15T17:20:08.760Z,19.67
2023-04-15T17:24:08.607Z,19.45
2023-04-15T17:28:09.140Z,19.35
2023-04-15T17:32:11.130Z,19.13
2023-04-15T17:36:14.729Z,18.94
2023-04-15T17:40:29.301Z,18.75
2023-04-15T17:44:31.173Z,18.64
2023-04-15T17:48:37.839Z,18.51
2023-04-15T17:52:44.830Z,18.47
2023-04-15T17:56:49.115Z,18.48
2023-04-15T18:00:49.915Z,18.45
2023-04-15T18:04:53.884Z,18.52
2023-04-15T18:08:59.392Z,18.48
2023-04-15T18:13:03.601Z,18.41
2023-04-15T18:17:07.535Z,18.51
2023-04-15T18:21:18.112Z,18.38
2023-04-15T18:25:22.744Z,18.22
2023-04-15T18:29:26.535Z,18.12
2023-04-15T18:33:31.718Z,18.14
2023-04-15T18:37:38.397Z,17.97
2023-04-15T18:41:41.623Z,17.81
2023-04-15T18:45:41.942Z,17.88
2023-04-15T18:50:09.810Z,17.80
2023-04-15T18:54:11.254Z,17.77
2023-04-15T18:58:13.216Z,17.74
2023-04-15T19:02:13.407Z,17.57
2023-04-15T19:06:20.510Z,17.50
2023-04-15T19:10:24.731Z,17.43
2023-04-15T19:14:34.129Z,17.34
2023-04-15T19:18:39.958Z,17.26
2023-04-15T19:22:50.789Z,17.11
2023-04-15T19:26:52.690Z,16.92
2023-04-15T19:31:00.669Z,16.63
2023-04-15T19:35:03.882Z,16.67
2023-04-15T19:39:05.422Z,16.56
2023-04-15T19:43:05.619Z,16.58
2023-04-15T19:47:07.639Z,16.50
2023-04-15T19:51:11.155Z,16.41
2023-04-15T19:55:12.616Z,16.48
2023-04-15T19:59:32.329Z,16.27
2023-04-15T20:03:36.776Z,16.13
2023-04-15T20:07:42.866Z,16.02
2023-04-15T20:12:09.621Z,15.90
2023-04-15T20:16:12.396Z,16.02
2023-04-15T20:20:14.767Z,15.89
2023-04-15T20:24:24.213Z,16.02
2023-04-15T20:28:28.826Z,16.09
2023-04-15T20:32:32.087Z,16.13
2023-04-15T20:36:34.635Z,16.15
2023-04-15T20:40:41.881Z,16.14
2023-04-15T20:44:44.900Z,16.07
2023-04-15T20:48:49.271Z,16.13
2023-04-15T20:52:54.479Z,16.16
2023-04-15T20:56:54.243Z,16.15
2023-04-15T21:00:58.693Z,16.14
2023-04-15T21:04:59.290Z,16.15
2023-04-15T21:09:07.373Z,16.04
2023-04-15T21:13:09.198Z,15.97
2023-04-15T21:17:11.159Z,15.95
2023-04-15T21:21:14.657Z,15.82
2023-04-15T21:25:17.633Z,15.66
2023-04-15T21:29:31.139Z,15.45
2023-04-15T21:33:37.493Z,15.31
2023-04-15T21:37:41.470Z,15.19
2023-04-15T21:41:51.340Z,15.12
2023-04-15T21:46:23.899Z,15.06
2023-04-15T21:50:35.499Z,14.87
2023-04-15T21:54:52.220Z,14.75
2023-04-15T21:59:09.153Z,14.69
2023-04-15T22:03:39.801Z,14.68
2023-04-15T22:07:46.200Z,14.62
2023-04-15T22:11:54.909Z,14.52
2023-04-15T22:16:23.979Z,14.31
2023-04-15T22:20:30.364Z,14.16
2023-04-15T22:24:50.803Z,14.04
2023-04-15T22:29:29.314Z,13.94
2023-04-15T22:33:39.704Z,13.82
2023-04-15T22:37:52.190Z,13.93
2023-04-15T22:41:57.067Z,13.93
2023-04-15T22:45:58.234Z,14.03
2023-04-15T22:50:04.489Z,14.08
2023-04-15T22:54:10.565Z,14.19
2023-04-15T22:58:11.408Z,14.26
2023-04-15T23:02:13.832Z,14.31
2023-04-15T23:06:25.181Z,14.26
2023-04-15T23:10:27.975Z,14.36
2023-04-15T23:14:33.118Z,14.33
2023-04-15T23:18:33.352Z,14.17
2023-04-15T23:22:39.010Z,14.00
2023-04-15T23:26:45.080Z,13.79
2023-04-15T23:30:46.952Z,13.77
2023-04-15T23:34:50.770Z,13.84
2023-04-15T23:39:16.089Z,13.90
2023-04-15T23:43:17.957Z,14.00
2023-04-15T23:47:23.111Z,14.09
2023-04-15T23:51:23.953Z,14.08
2023-04-15T23:55:33.296Z,14.12
2023-04-15T23:59:38.246Z,14.12
